To NAV CANADA Home Page Login to a new session Search on AWWS site Disclaimer Vers la page française équivalente Tips FAQ What's new on the site To the Forecasts and Observations / NOTAM section To "File a Flight Plan" website Publications and other links Update of the User's profile FIC Telephone Numbers My Weather Data Folder Route Weather Data Regional Weather Data Local Weather Data To the Forecasts and Observations / NOTAM section
Request Generated 01/23/2020 at 00:02:01 UTC . Weather information available at that time is displayed.

METAR/TAF

KANGIRSUK/QC    

LWIS CYAS 222300Z AUTO 07016KT M19/M21 A2956=
LWIS CYAS 222200Z AUTO 08013G18KT M18/M21 A2958=
METAR CYAS 222100Z 07013KT 2SM -SN OVC012 M22/M24 A2961 RMK SN1ST7 SLP049=

*** REMARK        : Forecast period has ended; this was the last TAF issued
*** REMARQUE : La période de prévision est échue; ceci était le dernier TAF qui a été émis
TAF AMD CYAS 221940Z 2219/2222 10008KT 1SM -SN BR BKN002 OVC015 TEMPO
2219/2220 6SM -SN BR BKN015
FM222000 03005KT P6SM -SN SCT003 OVC030 TEMPO 2220/2222 1SM -SN
BR BKN003 OVC015
RMK NXT FCST WILL BE ISSUED AT 231445Z=
Your time UTC time
Weather data provided by Environment Canada and NAV CANADA